RJFC(METAR)
10/16 18:00
RJFC 160900Z 05013KT 9999 FEW015 BKN020 BKN030 23/19 Q1019 RMK
A3012=
戻る
トップページへ戻る
IMOC Co,.Ltd.